
Distance (Route):
Temperature : -18.2°C
Humidity : 19.5%
Pressure : 0hPa| Receiver | Frames | First received | Last received |
|---|---|---|---|
| LZ4TU-5 | 81 | 2026-09-01 11:36:46 | 2026-09-01 12:50:44 |
| Receiver | Date | Latitude | Longitude | Direction | Speed | Altitude | Climb | Temperature | Humidity | Pressure | Voltage | Killtimer | Uptime | BKT | XDATA |
|---|---|---|---|---|---|---|---|---|---|---|---|---|---|---|---|
| LZ4TU-5 | 2026-09-01 12:50:44 | 43.29766 | 20.78318 | 97° | 58km/h | 7479m | -17.4m/s | -18.2°C | 19.5% | 0hPa | 0V | 00:00:00 | 00:00:00 | 00:00:00 | |
| LZ4TU-5 | 2026-09-01 12:50:39 | 43.29775 | 20.78218 | 99° | 57km/h | 7566m | -17.5m/s | -19.0°C | 19.2% | 0hPa | 0V | 00:00:00 | 00:00:00 | 00:00:00 | |
| LZ4TU-5 | 2026-09-01 12:48:31 | 43.30103 | 20.74796 | 95° | 102km/h | 10095m | -21.6m/s | -38.0°C | 21.3% | 0hPa | 0V | 00:00:00 | 00:00:00 | 00:00:00 | |
| LZ4TU-5 | 2026-09-01 12:48:27 | 43.30111 | 20.74621 | 95° | 100km/h | 10207m | -21.8m/s | -38.9°C | 21.4% | 0hPa | 0V | 00:00:00 | 00:00:00 | 00:00:00 | |
| LZ4TU-5 | 2026-09-01 12:46:23 | 43.29944 | 20.69934 | 94° | 111km/h | 13114m | -25.9m/s | -58.9°C | 12.7% | 0hPa | 0V | 00:00:00 | 00:00:00 | 00:00:00 | |
| LZ4TU-5 | 2026-09-01 12:46:19 | 43.29948 | 20.69781 | 93° | 110km/h | 13219m | -26.0m/s | -59.7°C | 11.5% | 0hPa | 0V | 00:00:00 | 00:00:00 | 00:00:00 | |
| LZ4TU-5 | 2026-09-01 12:43:57 | 43.29853 | 20.66298 | 62° | 16km/h | 17647m | -37.4m/s | -56.6°C | 0.0% | 0hPa | 0V | 00:00:00 | 00:00:00 | 00:00:00 | |
| LZ4TU-5 | 2026-09-01 12:43:53 | 43.29847 | 20.66275 | 78° | 18km/h | 17798m | -37.9m/s | -56.2°C | 0.0% | 0hPa | 0V | 00:00:00 | 00:00:00 | 00:00:00 | |
| LZ4TU-5 | 2026-09-01 12:43:48 | 43.29842 | 20.66248 | 67° | 16km/h | 17982m | -38.7m/s | -56.8°C | 0.0% | 0hPa | 0V | 00:00:00 | 00:00:00 | 00:00:00 | |
| LZ4TU-5 | 2026-09-01 12:41:22 | 43.29564 | 20.65798 | 40° | 7km/h | 25016m | -59.4m/s | -48.1°C | 0.0% | 0hPa | 0V | 00:00:00 | 00:00:00 | 00:00:00 | |
| LZ4TU-5 | 2026-09-01 12:41:17 | 43.29561 | 20.65793 | 0° | 0km/h | 25317m | -63.8m/s | -46.9°C | 0.0% | 0hPa | 0V | 00:00:00 | 00:00:00 | 00:00:00 | |
| LZ4TU-5 | 2026-09-01 12:39:09 | 43.29273 | 20.66082 | 301° | 22km/h | 31286m | 6.0m/s | -39.4°C | 1.6% | 0hPa | 0V | 00:00:00 | 00:00:00 | 00:00:00 | |
| LZ4TU-5 | 2026-09-01 12:39:04 | 43.29268 | 20.66123 | 276° | 13km/h | 31247m | 8.3m/s | -39.4°C | 1.6% | 0hPa | 0V | 00:00:00 | 00:00:00 | 00:00:00 | |
| LZ4TU-5 | 2026-09-01 12:36:58 | 43.29086 | 20.66801 | 213° | 33km/h | 30368m | 9.6m/s | -39.6°C | 1.3% | 0hPa | 0V | 00:00:00 | 00:00:00 | 00:00:00 | |
| LZ4TU-5 | 2026-09-01 12:36:54 | 43.29107 | 20.66821 | 282° | 7km/h | 30347m | 6.9m/s | -39.7°C | 1.3% | 0hPa | 0V | 00:00:00 | 00:00:00 | 00:00:00 | |
| LZ4TU-5 | 2026-09-01 12:35:01 | 43.28870 | 20.67065 | 24° | 20km/h | 29576m | 4.7m/s | -42.2°C | 1.3% | 0hPa | 0V | 00:00:00 | 00:00:00 | 00:00:00 | |
| LZ4TU-5 | 2026-09-01 12:34:56 | 43.28865 | 20.67084 | 265° | 26km/h | 29541m | 3.9m/s | -42.0°C | 1.2% | 0hPa | 0V | 00:00:00 | 00:00:00 | 00:00:00 | |
| LZ4TU-5 | 2026-09-01 12:33:04 | 43.28619 | 20.67065 | 23° | 24km/h | 28752m | 6.3m/s | -43.6°C | 1.2% | 0hPa | 0V | 00:00:00 | 00:00:00 | 00:00:00 | |
| LZ4TU-5 | 2026-09-01 12:32:59 | 43.28596 | 20.67082 | 277° | 18km/h | 28719m | 6.6m/s | -43.7°C | 0% | 0hPa | 0V | 00:00:00 | 00:00:00 | 00:00:00 | |
| LZ4TU-5 | 2026-09-01 12:31:07 | 43.28361 | 20.67526 | 251° | 9km/h | 27978m | 7.9m/s | -44.4°C | 1.1% | 0hPa | 0V | 00:00:00 | 00:00:00 | 00:00:00 | |
| LZ4TU-5 | 2026-09-01 12:31:02 | 43.28364 | 20.67533 | 271° | 4km/h | 27946m | 5.4m/s | -44.4°C | 1.0% | 0hPa | 0V | 00:00:00 | 00:00:00 | 00:00:00 | |
| LZ4TU-5 | 2026-09-01 12:29:06 | 43.28234 | 20.68022 | 208° | 18km/h | 27137m | 7.5m/s | -44.6°C | 1.1% | 0hPa | 0V | 00:00:00 | 00:00:00 | 00:00:00 | |
| LZ4TU-5 | 2026-09-01 12:29:02 | 43.28253 | 20.68034 | 220° | 24km/h | 27109m | 9.8m/s | -44.6°C | 1.1% | 0hPa | 0V | 00:00:00 | 00:00:00 | 00:00:00 | |
| LZ4TU-5 | 2026-09-01 12:27:08 | 43.28363 | 20.67819 | 83° | 15km/h | 26303m | 5.6m/s | -45.8°C | 1.0% | 0hPa | 0V | 00:00:00 | 00:00:00 | 00:00:00 | |
| LZ4TU-5 | 2026-09-01 12:27:03 | 43.28359 | 20.67808 | 50° | 9km/h | 26276m | 5.2m/s | -45.8°C | 0.9% | 0hPa | 0V | 00:00:00 | 00:00:00 | 00:00:00 | |
| LZ4TU-5 | 2026-09-01 12:25:11 | 43.28258 | 20.67810 | 126° | 13km/h | 25573m | 7.7m/s | -47.6°C | 0.7% | 0hPa | 0V | 00:00:00 | 00:00:00 | 00:00:00 | |
| LZ4TU-5 | 2026-09-01 12:25:08 | 43.28269 | 20.67792 | 150° | 18km/h | 25546m | 6.6m/s | -47.7°C | 0.8% | 0hPa | 0V | 00:00:00 | 00:00:00 | 00:00:00 | |
| LZ4TU-5 | 2026-09-01 12:23:15 | 43.28172 | 20.67724 | 201° | 26km/h | 24812m | 8.2m/s | -48.9°C | 0.7% | 0hPa | 0V | 00:00:00 | 00:00:00 | 00:00:00 | |
| LZ4TU-5 | 2026-09-01 12:23:10 | 43.28181 | 20.67734 | 297° | 7km/h | 24782m | 5.6m/s | -48.9°C | 0.7% | 0hPa | 0V | 00:00:00 | 00:00:00 | 00:00:00 | |
| LZ4TU-5 | 2026-09-01 12:21:18 | 43.28373 | 20.67852 | 101° | 15km/h | 24083m | 6.2m/s | -50.5°C | 0.7% | 0hPa | 0V | 00:00:00 | 00:00:00 | 00:00:00 | |
| LZ4TU-5 | 2026-09-01 12:21:13 | 43.28390 | 20.67842 | 188° | 18km/h | 24055m | 6.1m/s | -50.9°C | 0.7% | 0hPa | 0V | 00:00:00 | 00:00:00 | 00:00:00 | |
| LZ4TU-5 | 2026-09-01 12:19:14 | 43.28317 | 20.67806 | 342° | 15km/h | 23298m | 5.7m/s | -50.9°C | 0.6% | 0hPa | 0V | 00:00:00 | 00:00:00 | 00:00:00 | |
| LZ4TU-5 | 2026-09-01 12:19:09 | 43.28305 | 20.67799 | 0° | 0km/h | 23267m | 6.9m/s | -50.9°C | 0.5% | 0hPa | 0V | 00:00:00 | 00:00:00 | 00:00:00 | |
| LZ4TU-5 | 2026-09-01 12:17:19 | 43.28050 | 20.68077 | 251° | 16km/h | 22588m | 7.2m/s | -51.6°C | 0.7% | 0hPa | 0V | 00:00:00 | 00:00:00 | 00:00:00 | |
| LZ4TU-5 | 2026-09-01 12:17:16 | 43.28047 | 20.68103 | 293° | 20km/h | 22556m | 7.2m/s | -51.6°C | 0.7% | 0hPa | 0V | 00:00:00 | 00:00:00 | 00:00:00 | |
| LZ4TU-5 | 2026-09-01 12:15:22 | 43.27914 | 20.68349 | 165° | 15km/h | 21884m | 7.2m/s | -51.9°C | 0.5% | 0hPa | 0V | 00:00:00 | 00:00:00 | 00:00:00 | |
| LZ4TU-5 | 2026-09-01 12:15:19 | 43.27928 | 20.68343 | 101° | 7km/h | 21852m | 5.8m/s | -51.7°C | 0.4% | 0hPa | 0V | 00:00:00 | 00:00:00 | 00:00:00 | |
| LZ4TU-5 | 2026-09-01 12:13:20 | 43.27758 | 20.67572 | 45° | 33km/h | 21143m | 6.6m/s | -53.9°C | 0.5% | 0hPa | 0V | 00:00:00 | 00:00:00 | 00:00:00 | |
| LZ4TU-5 | 2026-09-01 12:13:16 | 43.27742 | 20.67535 | 63° | 35km/h | 21120m | 6.5m/s | -53.7°C | 0.4% | 0hPa | 0V | 00:00:00 | 00:00:00 | 00:00:00 | |
| LZ4TU-5 | 2026-09-01 12:11:16 | 43.27103 | 20.67090 | 318° | 11km/h | 20436m | 6.2m/s | -55.7°C | 0.3% | 0hPa | 0V | 00:00:00 | 00:00:00 | 00:00:00 | |
| LZ4TU-5 | 2026-09-01 12:11:11 | 43.27090 | 20.67085 | 52° | 18km/h | 20408m | 7.2m/s | -55.4°C | 0.3% | 0hPa | 0V | 00:00:00 | 00:00:00 | 00:00:00 | |
| LZ4TU-5 | 2026-09-01 12:09:19 | 43.26835 | 20.66389 | 36° | 11km/h | 19732m | 6.1m/s | -55.4°C | 0% | 0hPa | 0V | 00:00:00 | 00:00:00 | 00:00:00 | |
| LZ4TU-5 | 2026-09-01 12:09:14 | 43.26817 | 20.66371 | 9° | 20km/h | 19702m | 4.7m/s | -55.1°C | 0.7% | 0hPa | 0V | 00:00:00 | 00:00:00 | 00:00:00 | |
| LZ4TU-5 | 2026-09-01 12:07:20 | 43.26640 | 20.66049 | 88° | 22km/h | 19043m | 5.3m/s | -56.0°C | 0.8% | 0hPa | 0V | 00:00:00 | 00:00:00 | 00:00:00 | |
| LZ4TU-5 | 2026-09-01 12:07:15 | 43.26639 | 20.66026 | 89° | 13km/h | 19020m | 6.3m/s | -56.0°C | 0% | 0hPa | 0V | 00:00:00 | 00:00:00 | 00:00:00 | |
| LZ4TU-5 | 2026-09-01 12:05:31 | 43.26123 | 20.65327 | 3° | 24km/h | 18422m | 6.4m/s | -56.7°C | 0.5% | 0hPa | 0V | 00:00:00 | 00:00:00 | 00:00:00 | |
| LZ4TU-5 | 2026-09-01 12:05:25 | 43.26090 | 20.65309 | 31° | 38km/h | 18394m | 5.3m/s | -56.6°C | 0.4% | 0hPa | 0V | 00:00:00 | 00:00:00 | 00:00:00 | |
| LZ4TU-5 | 2026-09-01 12:03:31 | 43.25745 | 20.64875 | 141° | 9km/h | 17720m | 5.8m/s | -56.5°C | 0.4% | 0hPa | 0V | 00:00:00 | 00:00:00 | 00:00:00 | |
| LZ4TU-5 | 2026-09-01 12:03:27 | 43.25754 | 20.64840 | 91° | 40km/h | 17698m | 6.7m/s | -56.6°C | 0.4% | 0hPa | 0V | 00:00:00 | 00:00:00 | 00:00:00 | |
| LZ4TU-5 | 2026-09-01 12:01:45 | 43.25610 | 20.63757 | 69° | 37km/h | 17038m | 3.7m/s | -56.7°C | 1.6% | 0hPa | 0V | 00:00:00 | 00:00:00 | 00:00:00 | |
| LZ4TU-5 | 2026-09-01 12:01:40 | 43.25607 | 20.63683 | 104° | 42km/h | 17009m | 5.8m/s | -56.9°C | 1.7% | 0hPa | 0V | 00:00:00 | 00:00:00 | 00:00:00 | |
| LZ4TU-5 | 2026-09-01 11:59:51 | 43.25499 | 20.61952 | 76° | 62km/h | 16410m | 5.3m/s | -61.4°C | 3.9% | 0hPa | 0V | 00:00:00 | 00:00:00 | 00:00:00 | |
| LZ4TU-5 | 2026-09-01 11:59:46 | 43.25486 | 20.61834 | 84° | 77km/h | 16384m | 5.8m/s | -61.5°C | 3.9% | 0hPa | 0V | 00:00:00 | 00:00:00 | 00:00:00 | |
| LZ4TU-5 | 2026-09-01 11:57:57 | 43.24906 | 20.59606 | 73° | 44km/h | 15795m | 3.4m/s | -61.2°C | 4.5% | 0hPa | 0V | 00:00:00 | 00:00:00 | 00:00:00 | |
| LZ4TU-5 | 2026-09-01 11:57:53 | 43.24899 | 20.59534 | 91° | 58km/h | 15765m | 5.8m/s | -61.1°C | 4.6% | 0hPa | 0V | 00:00:00 | 00:00:00 | 00:00:00 | |
| LZ4TU-5 | 2026-09-01 11:56:06 | 43.24777 | 20.57123 | 75° | 77km/h | 15165m | 6.4m/s | -61.2°C | 7.1% | 0hPa | 0V | 00:00:00 | 00:00:00 | 00:00:00 | |
| LZ4TU-5 | 2026-09-01 11:56:00 | 43.24754 | 20.56989 | 82° | 71km/h | 15137m | 7.5m/s | -61.0°C | 7.3% | 0hPa | 0V | 00:00:00 | 00:00:00 | 00:00:00 | |
| LZ4TU-5 | 2026-09-01 11:54:16 | 43.24689 | 20.54197 | 99° | 86km/h | 14524m | 6.2m/s | -60.7°C | 12.6% | 0hPa | 0V | 00:00:00 | 00:00:00 | 00:00:00 | |
| LZ4TU-5 | 2026-09-01 11:54:12 | 43.24692 | 20.54084 | 92° | 84km/h | 14502m | 4.9m/s | -60.7°C | 12.9% | 0hPa | 0V | 00:00:00 | 00:00:00 | 00:00:00 | |
| LZ4TU-5 | 2026-09-01 11:52:28 | 43.24861 | 20.50808 | 97° | 95km/h | 13898m | 5.6m/s | -61.1°C | 18.5% | 0hPa | 0V | 00:00:00 | 00:00:00 | 00:00:00 | |
| LZ4TU-5 | 2026-09-01 11:52:24 | 43.24864 | 20.50673 | 89° | 97km/h | 13873m | 4.8m/s | -61.1°C | 18.7% | 0hPa | 0V | 00:00:00 | 00:00:00 | 00:00:00 | |
| LZ4TU-5 | 2026-09-01 11:50:42 | 43.25053 | 20.46978 | 92° | 104km/h | 13288m | 5.1m/s | -59.8°C | 21.9% | 0hPa | 0V | 00:00:00 | 00:00:00 | 00:00:00 | |
| LZ4TU-5 | 2026-09-01 11:50:37 | 43.25064 | 20.46793 | 98° | 113km/h | 13257m | 8.6m/s | -59.9°C | 22.2% | 0hPa | 0V | 00:00:00 | 00:00:00 | 00:00:00 | |
| LZ4TU-5 | 2026-09-01 11:48:52 | 43.25173 | 20.42611 | 87° | 104km/h | 12645m | 5.0m/s | -56.4°C | 19.7% | 0hPa | 0V | 00:00:00 | 00:00:00 | 00:00:00 | |
| LZ4TU-5 | 2026-09-01 11:48:48 | 43.25170 | 20.42405 | 98° | 126km/h | 12615m | 5.1m/s | -56.0°C | 19.4% | 0hPa | 0V | 00:00:00 | 00:00:00 | 00:00:00 | |
| LZ4TU-5 | 2026-09-01 11:47:03 | 43.25068 | 20.38161 | 85° | 119km/h | 12002m | 6.2m/s | -51.3°C | 16.9% | 0hPa | 0V | 00:00:00 | 00:00:00 | 00:00:00 | |
| LZ4TU-5 | 2026-09-01 11:46:57 | 43.25049 | 20.37949 | 88° | 124km/h | 11973m | 4.7m/s | -51.2°C | 16.8% | 0hPa | 0V | 00:00:00 | 00:00:00 | 00:00:00 | |
| LZ4TU-5 | 2026-09-01 11:45:19 | 43.24760 | 20.33919 | 84° | 135km/h | 11345m | 4.8m/s | -46.0°C | 14.8% | 0hPa | 0V | 00:00:00 | 00:00:00 | 00:00:00 | |
| LZ4TU-5 | 2026-09-01 11:45:12 | 43.24736 | 20.33692 | 83° | 122km/h | 11321m | 4.4m/s | -45.9°C | 14.9% | 0hPa | 0V | 00:00:00 | 00:00:00 | 00:00:00 | |
| LZ4TU-5 | 2026-09-01 11:43:34 | 43.24601 | 20.29842 | 97° | 102km/h | 10788m | 4.9m/s | -43.3°C | 16.7% | 0hPa | 0V | 00:00:00 | 00:00:00 | 00:00:00 | |
| LZ4TU-5 | 2026-09-01 11:43:31 | 43.24608 | 20.29690 | 90° | 117km/h | 10768m | 4.8m/s | -43.1°C | 16.8% | 0hPa | 0V | 00:00:00 | 00:00:00 | 00:00:00 | |
| LZ4TU-5 | 2026-09-01 11:41:50 | 43.24670 | 20.26097 | 92° | 99km/h | 10196m | 5.3m/s | -39.5°C | 19.7% | 0hPa | 0V | 00:00:00 | 00:00:00 | 00:00:00 | |
| LZ4TU-5 | 2026-09-01 11:41:46 | 43.24678 | 20.25899 | 91° | 115km/h | 10169m | 2.7m/s | -39.3°C | 19.7% | 0hPa | 0V | 00:00:00 | 00:00:00 | 00:00:00 | |
| LZ4TU-5 | 2026-09-01 11:40:15 | 43.24787 | 20.22716 | 103° | 95km/h | 9666m | 5.8m/s | -35.6°C | 13.5% | 0hPa | 0V | 00:00:00 | 00:00:00 | 00:00:00 | |
| LZ4TU-5 | 2026-09-01 11:40:11 | 43.24806 | 20.22534 | 92° | 102km/h | 9641m | 6.3m/s | -35.4°C | 13.0% | 0hPa | 0V | 00:00:00 | 00:00:00 | 00:00:00 | |
| LZ4TU-5 | 2026-09-01 11:38:37 | 43.24941 | 20.19600 | 88° | 97km/h | 9127m | 6.7m/s | -31.3°C | 9.8% | 0hPa | 0V | 00:00:00 | 00:00:00 | 00:00:00 | |
| LZ4TU-5 | 2026-09-01 11:38:32 | 43.24935 | 20.19421 | 96° | 88km/h | 9106m | 6.3m/s | -31.5°C | 10.2% | 0hPa | 0V | 00:00:00 | 00:00:00 | 00:00:00 | |
| LZ4TU-5 | 2026-09-01 11:37:00 | 43.25106 | 20.16883 | 83° | 77km/h | 8598m | 5.8m/s | -27.8°C | 14.3% | 0hPa | 0V | 00:00:00 | 00:00:00 | 00:00:00 | |
| LZ4TU-5 | 2026-09-01 11:36:55 | 43.25125 | 20.16757 | 109° | 89km/h | 8572m | 5.7m/s | -27.6°C | 14.6% | 0hPa | 0V | 00:00:00 | 00:00:00 | 00:00:00 | |
| LZ4TU-5 | 2026-09-01 11:36:50 | 43.25130 | 20.16622 | 85° | 64km/h | 8540m | 5.8m/s | -27.3°C | 14.8% | 0hPa | 0V | 00:00:00 | 00:00:00 | 00:00:00 | |
| LZ4TU-5 | 2026-09-01 11:36:46 | 43.25139 | 20.16527 | 107° | 77km/h | 8519m | 4.8m/s | -27.1°C | 14.9% | 0hPa | 0V | 00:00:00 | 00:00:00 | 00:00:00 |